sensor_id;sensor_type;location;lat;lon;timestamp;P1;P2;P0
69205;PMS7003;56319;48.920;2.332;2023-05-29T00:02:06;6.00;4.75;3.25
69205;PMS7003;56319;48.920;2.332;2023-05-29T00:04:32;5.75;5.00;4.00
69205;PMS7003;56319;48.920;2.332;2023-05-29T00:06:57;4.00;4.00;3.75
69205;PMS7003;56319;48.920;2.332;2023-05-29T00:09:23;5.25;5.00;4.00
69205;PMS7003;56319;48.920;2.332;2023-05-29T00:11:49;4.25;4.25;4.00
69205;PMS7003;56319;48.920;2.332;2023-05-29T00:14:18;2.00;2.00;2.00
69205;PMS7003;56319;48.920;2.332;2023-05-29T00:16:46;5.00;4.25;4.00
69205;PMS7003;56319;48.920;2.332;2023-05-29T00:19:12;7.25;4.50;4.00
69205;PMS7003;56319;48.920;2.332;2023-05-29T00:21:39;4.50;4.50;4.00
69205;PMS7003;56319;48.920;2.332;2023-05-29T00:24:05;4.75;4.75;4.00
69205;PMS7003;56319;48.920;2.332;2023-05-29T00:26:31;4.00;4.00;4.00
69205;PMS7003;56319;48.920;2.332;2023-05-29T00:28:56;4.25;4.25;3.50
69205;PMS7003;56319;48.920;2.332;2023-05-29T00:31:22;1.50;1.50;1.50
69205;PMS7003;56319;48.920;2.332;2023-05-29T00:33:49;3.75;3.75;3.75
69205;PMS7003;56319;48.920;2.332;2023-05-29T00:36:15;4.00;3.25;3.00
69205;PMS7003;56319;48.920;2.332;2023-05-29T00:38:41;4.25;3.00;2.50
69205;PMS7003;56319;48.920;2.332;2023-05-29T00:41:06;7.25;5.00;4.25
69205;PMS7003;56319;48.920;2.332;2023-05-29T00:43:32;4.00;4.00;3.00
69205;PMS7003;56319;48.920;2.332;2023-05-29T00:45:57;4.00;4.00;3.00
69205;PMS7003;56319;48.920;2.332;2023-05-29T00:48:24;4.00;4.00;3.00
69205;PMS7003;56319;48.920;2.332;2023-05-29T00:50:50;5.00;5.00;3.00
69205;PMS7003;56319;48.920;2.332;2023-05-29T00:53:16;4.00;4.00;3.00
69205;PMS7003;56319;48.920;2.332;2023-05-29T00:55:42;5.00;3.00;2.25
69205;PMS7003;56319;48.920;2.332;2023-05-29T00:58:08;4.75;4.75;3.75
69205;PMS7003;56319;48.920;2.332;2023-05-29T01:00:33;3.50;3.50;3.00
69205;PMS7003;56319;48.920;2.332;2023-05-29T01:03:02;5.00;3.75;3.50
69205;PMS7003;56319;48.920;2.332;2023-05-29T01:05:33;4.00;3.75;3.25
69205;PMS7003;56319;48.920;2.332;2023-05-29T01:08:00;4.25;4.25;4.00
69205;PMS7003;56319;48.920;2.332;2023-05-29T01:10:26;2.75;2.25;2.00
69205;PMS7003;56319;48.920;2.332;2023-05-29T01:12:57;5.00;5.00;4.00
69205;PMS7003;56319;48.920;2.332;2023-05-29T01:18:36;4.00;4.00;3.25
69205;PMS7003;56319;48.920;2.332;2023-05-29T01:21:11;6.00;4.75;4.00
69205;PMS7003;56319;48.920;2.332;2023-05-29T01:23:51;2.00;2.00;2.00
69205;PMS7003;56319;48.920;2.332;2023-05-29T01:29:18;2.75;2.00;2.00
69205;PMS7003;56319;48.920;2.332;2023-05-29T01:31:46;4.50;4.00;3.00
69205;PMS7003;56319;48.920;2.332;2023-05-29T01:34:13;4.25;3.75;3.25
69205;PMS7003;56319;48.920;2.332;2023-05-29T01:36:38;4.50;3.75;3.00
69205;PMS7003;56319;48.920;2.332;2023-05-29T01:39:04;6.00;5.00;4.00
69205;PMS7003;56319;48.920;2.332;2023-05-29T01:41:30;4.00;4.00;2.50
69205;PMS7003;56319;48.920;2.332;2023-05-29T01:43:58;4.50;3.50;3.25
69205;PMS7003;56319;48.920;2.332;2023-05-29T01:46:25;3.25;3.25;3.00
69205;PMS7003;56319;48.920;2.332;2023-05-29T01:48:50;3.00;3.00;2.50
69205;PMS7003;56319;48.920;2.332;2023-05-29T01:51:17;5.25;4.00;3.00
69205;PMS7003;56319;48.920;2.332;2023-05-29T01:53:43;4.00;4.00;3.00
69205;PMS7003;56319;48.920;2.332;2023-05-29T01:56:09;5.50;3.00;3.00
69205;PMS7003;56319;48.920;2.332;2023-05-29T01:58:35;4.00;4.00;3.00
69205;PMS7003;56319;48.920;2.332;2023-05-29T02:01:03;6.00;3.75;3.00
69205;PMS7003;56319;48.920;2.332;2023-05-29T02:03:29;4.00;3.00;3.00
69205;PMS7003;56319;48.920;2.332;2023-05-29T02:05:56;5.00;4.00;3.50
69205;PMS7003;56319;48.920;2.332;2023-05-29T02:08:22;3.50;3.50;3.00
69205;PMS7003;56319;48.920;2.332;2023-05-29T02:10:48;3.00;3.00;2.50
69205;PMS7003;56319;48.920;2.332;2023-05-29T02:13:13;3.50;3.50;3.00
69205;PMS7003;56319;48.920;2.332;2023-05-29T02:15:39;6.00;2.75;2.00
69205;PMS7003;56319;48.920;2.332;2023-05-29T02:18:08;6.00;3.00;3.00
69205;PMS7003;56319;48.920;2.332;2023-05-29T02:20:37;4.50;4.00;3.00
69205;PMS7003;56319;48.920;2.332;2023-05-29T02:23:03;4.00;4.00;3.00
69205;PMS7003;56319;48.920;2.332;2023-05-29T02:25:28;4.50;4.00;3.00
69205;PMS7003;56319;48.920;2.332;2023-05-29T02:27:54;6.00;4.00;3.25
69205;PMS7003;56319;48.920;2.332;2023-05-29T02:30:19;4.00;4.00;3.00
69205;PMS7003;56319;48.920;2.332;2023-05-29T02:32:45;3.75;3.50;2.25
69205;PMS7003;56319;48.920;2.332;2023-05-29T02:35:11;5.50;4.25;4.00
69205;PMS7003;56319;48.920;2.332;2023-05-29T02:37:40;3.25;3.25;2.50
69205;PMS7003;56319;48.920;2.332;2023-05-29T02:40:06;3.50;3.50;3.00
69205;PMS7003;56319;48.920;2.332;2023-05-29T02:42:33;3.50;3.50;3.00
69205;PMS7003;56319;48.920;2.332;2023-05-29T02:44:58;4.00;4.00;3.00
69205;PMS7003;56319;48.920;2.332;2023-05-29T02:47:24;5.00;3.25;3.00
69205;PMS7003;56319;48.920;2.332;2023-05-29T02:49:50;3.00;2.25;2.25
69205;PMS7003;56319;48.920;2.332;2023-05-29T02:52:15;4.25;4.00;3.00
69205;PMS7003;56319;48.920;2.332;2023-05-29T02:54:40;4.50;3.25;3.00
69205;PMS7003;56319;48.920;2.332;2023-05-29T02:57:06;4.50;4.00;3.50
69205;PMS7003;56319;48.920;2.332;2023-05-29T02:59:32;3.75;3.75;3.00
69205;PMS7003;56319;48.920;2.332;2023-05-29T03:01:57;3.75;3.50;3.00
69205;PMS7003;56319;48.920;2.332;2023-05-29T03:04:23;6.75;4.00;3.25
69205;PMS7003;56319;48.920;2.332;2023-05-29T03:06:48;3.00;3.00;2.00
69205;PMS7003;56319;48.920;2.332;2023-05-29T03:09:14;6.75;5.00;4.00
69205;PMS7003;56319;48.920;2.332;2023-05-29T03:11:41;6.00;4.75;3.75
69205;PMS7003;56319;48.920;2.332;2023-05-29T03:14:08;3.25;3.25;3.00
69205;PMS7003;56319;48.920;2.332;2023-05-29T03:16:34;3.00;3.00;2.00
69205;PMS7003;56319;48.920;2.332;2023-05-29T03:19:01;4.50;4.00;3.00
69205;PMS7003;56319;48.920;2.332;2023-05-29T03:21:26;1.50;1.00;1.00
69205;PMS7003;56319;48.920;2.332;2023-05-29T03:23:52;3.00;3.00;3.00
69205;PMS7003;56319;48.920;2.332;2023-05-29T03:26:17;4.00;4.00;3.25
69205;PMS7003;56319;48.920;2.332;2023-05-29T03:28:43;3.00;3.00;3.00
69205;PMS7003;56319;48.920;2.332;2023-05-29T03:31:08;4.75;3.50;3.00
69205;PMS7003;56319;48.920;2.332;2023-05-29T03:33:35;4.00;4.00;3.75
69205;PMS7003;56319;48.920;2.332;2023-05-29T03:36:01;3.25;3.25;3.00
69205;PMS7003;56319;48.920;2.332;2023-05-29T03:38:27;3.75;2.50;2.50
69205;PMS7003;56319;48.920;2.332;2023-05-29T03:40:53;5.75;4.75;3.00
69205;PMS7003;56319;48.920;2.332;2023-05-29T03:43:19;4.00;3.00;3.00
69205;PMS7003;56319;48.920;2.332;2023-05-29T03:45:44;3.00;3.00;2.50
69205;PMS7003;56319;48.920;2.332;2023-05-29T03:48:10;3.75;3.75;3.00
69205;PMS7003;56319;48.920;2.332;2023-05-29T03:50:35;4.50;4.25;3.00
69205;PMS7003;56319;48.920;2.332;2023-05-29T03:53:01;5.00;4.00;4.00
69205;PMS7003;56319;48.920;2.332;2023-05-29T03:55:26;5.00;3.25;3.00
69205;PMS7003;56319;48.920;2.332;2023-05-29T03:57:53;3.00;3.00;2.25
69205;PMS7003;56319;48.920;2.332;2023-05-29T04:00:18;3.25;3.00;2.75
69205;PMS7003;56319;48.920;2.332;2023-05-29T04:02:44;3.75;3.75;3.00
69205;PMS7003;56319;48.920;2.332;2023-05-29T04:05:09;4.00;3.25;2.50
69205;PMS7003;56319;48.920;2.332;2023-05-29T04:07:35;4.75;4.00;3.50
69205;PMS7003;56319;48.920;2.332;2023-05-29T04:10:02;3.25;3.00;2.00
69205;PMS7003;56319;48.920;2.332;2023-05-29T04:12:28;2.50;2.50;2.00
69205;PMS7003;56319;48.920;2.332;2023-05-29T04:14:54;4.25;4.25;3.25
69205;PMS7003;56319;48.920;2.332;2023-05-29T04:17:19;5.00;3.25;3.00
69205;PMS7003;56319;48.920;2.332;2023-05-29T04:19:45;0.00;0.00;0.00
69205;PMS7003;56319;48.920;2.332;2023-05-29T04:22:10;3.75;3.75;2.75
69205;PMS7003;56319;48.920;2.332;2023-05-29T04:24:36;4.00;4.00;4.00
69205;PMS7003;56319;48.920;2.332;2023-05-29T04:27:01;4.75;4.25;3.25
69205;PMS7003;56319;48.920;2.332;2023-05-29T04:29:28;5.75;4.50;4.00
69205;PMS7003;56319;48.920;2.332;2023-05-29T04:31:54;3.00;3.00;3.00
69205;PMS7003;56319;48.920;2.332;2023-05-29T04:34:20;4.75;4.75;4.00
69205;PMS7003;56319;48.920;2.332;2023-05-29T04:36:46;3.75;3.75;3.00
69205;PMS7003;56319;48.920;2.332;2023-05-29T04:39:13;4.00;4.00;3.25
69205;PMS7003;56319;48.920;2.332;2023-05-29T04:41:39;3.50;3.00;3.00
69205;PMS7003;56319;48.920;2.332;2023-05-29T04:44:06;3.25;2.75;2.75
69205;PMS7003;56319;48.920;2.332;2023-05-29T04:46:32;5.50;4.00;3.00
69205;PMS7003;56319;48.920;2.332;2023-05-29T04:49:00;4.00;3.00;2.50
69205;PMS7003;56319;48.920;2.332;2023-05-29T04:51:28;4.00;4.00;3.00
69205;PMS7003;56319;48.920;2.332;2023-05-29T04:53:55;4.50;3.50;3.25
69205;PMS7003;56319;48.920;2.332;2023-05-29T04:56:20;4.00;2.75;2.25
69205;PMS7003;56319;48.920;2.332;2023-05-29T04:58:47;3.25;3.25;3.00
69205;PMS7003;56319;48.920;2.332;2023-05-29T05:01:13;3.00;3.00;3.00
69205;PMS7003;56319;48.920;2.332;2023-05-29T05:03:40;4.75;4.75;4.00
69205;PMS7003;56319;48.920;2.332;2023-05-29T05:06:06;4.25;3.25;3.00
69205;PMS7003;56319;48.920;2.332;2023-05-29T05:08:32;4.00;4.00;3.00
69205;PMS7003;56319;48.920;2.332;2023-05-29T05:10:59;5.00;3.75;3.00
69205;PMS7003;56319;48.920;2.332;2023-05-29T05:13:25;3.00;3.00;2.50
69205;PMS7003;56319;48.920;2.332;2023-05-29T05:15:51;4.25;4.25;4.00
69205;PMS7003;56319;48.920;2.332;2023-05-29T05:18:17;4.00;2.75;2.75
69205;PMS7003;56319;48.920;2.332;2023-05-29T05:20:43;4.25;4.25;3.75
69205;PMS7003;56319;48.920;2.332;2023-05-29T05:23:09;4.50;4.00;3.25
69205;PMS7003;56319;48.920;2.332;2023-05-29T05:25:35;3.25;3.25;2.75
69205;PMS7003;56319;48.920;2.332;2023-05-29T05:28:02;6.75;5.25;4.00
69205;PMS7003;56319;48.920;2.332;2023-05-29T05:30:29;6.00;3.00;3.00
69205;PMS7003;56319;48.920;2.332;2023-05-29T05:32:54;4.25;3.25;3.00
69205;PMS7003;56319;48.920;2.332;2023-05-29T05:35:20;4.00;4.00;3.00
69205;PMS7003;56319;48.920;2.332;2023-05-29T05:37:46;3.75;3.50;3.00
69205;PMS7003;56319;48.920;2.332;2023-05-29T05:40:11;3.25;3.25;2.75
69205;PMS7003;56319;48.920;2.332;2023-05-29T05:42:37;4.00;4.00;3.50
69205;PMS7003;56319;48.920;2.332;2023-05-29T05:45:03;6.00;4.00;4.00
69205;PMS7003;56319;48.920;2.332;2023-05-29T05:47:30;3.00;3.00;2.00
69205;PMS7003;56319;48.920;2.332;2023-05-29T05:49:55;3.00;3.00;2.00
69205;PMS7003;56319;48.920;2.332;2023-05-29T05:52:21;2.00;2.00;2.00
69205;PMS7003;56319;48.920;2.332;2023-05-29T05:54:48;5.00;4.00;3.00
69205;PMS7003;56319;48.920;2.332;2023-05-29T05:57:13;5.75;5.50;4.50
69205;PMS7003;56319;48.920;2.332;2023-05-29T05:59:39;8.00;5.50;4.00
69205;PMS7003;56319;48.920;2.332;2023-05-29T06:02:04;4.00;4.00;3.00
69205;PMS7003;56319;48.920;2.332;2023-05-29T06:04:30;4.00;3.25;2.75
69205;PMS7003;56319;48.920;2.332;2023-05-29T06:06:55;4.00;3.00;3.00
69205;PMS7003;56319;48.920;2.332;2023-05-29T06:09:21;4.00;4.00;3.75
69205;PMS7003;56319;48.920;2.332;2023-05-29T06:11:47;4.75;3.75;3.00
69205;PMS7003;56319;48.920;2.332;2023-05-29T06:14:13;2.50;2.25;2.00
69205;PMS7003;56319;48.920;2.332;2023-05-29T06:16:39;4.00;4.00;3.00
69205;PMS7003;56319;48.920;2.332;2023-05-29T06:19:05;4.25;4.00;3.00
69205;PMS7003;56319;48.920;2.332;2023-05-29T06:21:31;4.50;4.25;3.00
69205;PMS7003;56319;48.920;2.332;2023-05-29T06:23:57;3.50;3.50;2.75
69205;PMS7003;56319;48.920;2.332;2023-05-29T06:26:22;5.00;5.00;4.00
69205;PMS7003;56319;48.920;2.332;2023-05-29T06:28:50;6.00;4.00;3.50
69205;PMS7003;56319;48.920;2.332;2023-05-29T06:31:15;4.00;4.00;3.00
69205;PMS7003;56319;48.920;2.332;2023-05-29T06:33:41;4.25;3.00;3.00
69205;PMS7003;56319;48.920;2.332;2023-05-29T06:36:06;5.00;3.75;3.00
69205;PMS7003;56319;48.920;2.332;2023-05-29T06:38:32;4.50;4.50;4.00
69205;PMS7003;56319;48.920;2.332;2023-05-29T06:40:58;5.75;4.50;4.00
69205;PMS7003;56319;48.920;2.332;2023-05-29T06:43:23;5.00;4.00;3.25
69205;PMS7003;56319;48.920;2.332;2023-05-29T06:45:49;3.00;3.00;3.00
69205;PMS7003;56319;48.920;2.332;2023-05-29T06:48:16;4.00;3.00;3.00
69205;PMS7003;56319;48.920;2.332;2023-05-29T06:50:42;3.50;3.25;2.75
69205;PMS7003;56319;48.920;2.332;2023-05-29T06:53:07;4.25;4.00;3.00
69205;PMS7003;56319;48.920;2.332;2023-05-29T06:55:33;3.75;3.00;3.00
69205;PMS7003;56319;48.920;2.332;2023-05-29T06:57:58;4.25;3.25;3.25
69205;PMS7003;56319;48.920;2.332;2023-05-29T07:00:24;6.00;4.75;4.75
69205;PMS7003;56319;48.920;2.332;2023-05-29T07:02:49;4.50;4.50;3.50
69205;PMS7003;56319;48.920;2.332;2023-05-29T07:05:16;4.50;4.50;3.50
69205;PMS7003;56319;48.920;2.332;2023-05-29T07:07:41;3.50;3.50;3.00
69205;PMS7003;56319;48.920;2.332;2023-05-29T07:10:07;4.00;4.00;3.25
69205;PMS7003;56319;48.920;2.332;2023-05-29T07:12:33;4.00;4.00;3.25
69205;PMS7003;56319;48.920;2.332;2023-05-29T07:14:58;5.00;4.00;3.50
69205;PMS7003;56319;48.920;2.332;2023-05-29T07:17:24;4.25;4.00;3.00
69205;PMS7003;56319;48.920;2.332;2023-05-29T07:19:50;5.00;5.00;3.00
69205;PMS7003;56319;48.920;2.332;2023-05-29T07:22:15;4.00;3.25;3.00
69205;PMS7003;56319;48.920;2.332;2023-05-29T07:24:41;4.25;3.25;3.00
69205;PMS7003;56319;48.920;2.332;2023-05-29T07:27:07;4.00;4.00;3.25
69205;PMS7003;56319;48.920;2.332;2023-05-29T07:29:32;4.00;4.00;3.50
69205;PMS7003;56319;48.920;2.332;2023-05-29T07:31:58;4.00;4.00;3.75
69205;PMS7003;56319;48.920;2.332;2023-05-29T07:34:23;4.50;4.50;3.25
69205;PMS7003;56319;48.920;2.332;2023-05-29T07:39:34;4.75;4.25;3.50
69205;PMS7003;56319;48.920;2.332;2023-05-29T07:42:01;4.00;4.00;4.00
69205;PMS7003;56319;48.920;2.332;2023-05-29T07:44:27;3.00;3.00;2.50
69205;PMS7003;56319;48.920;2.332;2023-05-29T07:46:53;4.00;4.00;4.00
69205;PMS7003;56319;48.920;2.332;2023-05-29T07:49:19;4.00;4.00;3.50
69205;PMS7003;56319;48.920;2.332;2023-05-29T07:51:45;7.50;5.25;4.00
69205;PMS7003;56319;48.920;2.332;2023-05-29T07:54:10;4.50;4.50;4.25
69205;PMS7003;56319;48.920;2.332;2023-05-29T07:56:36;5.00;3.75;3.25
69205;PMS7003;56319;48.920;2.332;2023-05-29T07:59:03;4.50;4.50;4.00
69205;PMS7003;56319;48.920;2.332;2023-05-29T08:01:30;4.25;4.25;3.00
69205;PMS7003;56319;48.920;2.332;2023-05-29T08:03:56;3.75;3.75;3.00
69205;PMS7003;56319;48.920;2.332;2023-05-29T08:06:21;3.75;3.75;3.50
69205;PMS7003;56319;48.920;2.332;2023-05-29T08:08:47;3.50;3.50;3.25
69205;PMS7003;56319;48.920;2.332;2023-05-29T08:11:12;5.00;4.00;3.25
69205;PMS7003;56319;48.920;2.332;2023-05-29T08:13:38;5.75;4.25;3.75
69205;PMS7003;56319;48.920;2.332;2023-05-29T08:16:04;4.25;4.25;3.75
69205;PMS7003;56319;48.920;2.332;2023-05-29T08:18:30;4.50;3.75;3.00
69205;PMS7003;56319;48.920;2.332;2023-05-29T08:20:56;3.75;3.00;2.75
69205;PMS7003;56319;48.920;2.332;2023-05-29T08:23:22;5.00;4.00;3.50
69205;PMS7003;56319;48.920;2.332;2023-05-29T08:25:48;4.25;4.25;4.00
69205;PMS7003;56319;48.920;2.332;2023-05-29T08:28:14;5.00;5.00;4.00
69205;PMS7003;56319;48.920;2.332;2023-05-29T08:30:40;8.25;4.00;4.00
69205;PMS7003;56319;48.920;2.332;2023-05-29T08:33:06;4.50;4.00;3.25
69205;PMS7003;56319;48.920;2.332;2023-05-29T08:35:31;4.25;4.25;4.00
69205;PMS7003;56319;48.920;2.332;2023-05-29T08:37:58;6.00;6.00;5.00
69205;PMS7003;56319;48.920;2.332;2023-05-29T08:40:24;4.75;4.75;3.25
69205;PMS7003;56319;48.920;2.332;2023-05-29T08:42:51;4.00;4.00;4.00
69205;PMS7003;56319;48.920;2.332;2023-05-29T08:45:22;5.00;5.00;4.75
69205;PMS7003;56319;48.920;2.332;2023-05-29T08:47:52;6.00;4.00;3.25
69205;PMS7003;56319;48.920;2.332;2023-05-29T08:50:19;6.00;5.00;4.25
69205;PMS7003;56319;48.920;2.332;2023-05-29T08:52:46;5.00;5.00;4.00
69205;PMS7003;56319;48.920;2.332;2023-05-29T08:55:11;6.25;4.25;4.00
69205;PMS7003;56319;48.920;2.332;2023-05-29T08:57:38;5.00;5.00;4.00
69205;PMS7003;56319;48.920;2.332;2023-05-29T09:00:04;5.25;5.25;4.50
69205;PMS7003;56319;48.920;2.332;2023-05-29T09:02:34;7.00;6.50;6.00
69205;PMS7003;56319;48.920;2.332;2023-05-29T09:05:02;5.75;5.25;5.00
69205;PMS7003;56319;48.920;2.332;2023-05-29T09:07:28;6.25;5.25;4.50
69205;PMS7003;56319;48.920;2.332;2023-05-29T09:09:53;6.25;4.00;4.00
69205;PMS7003;56319;48.920;2.332;2023-05-29T09:12:19;6.00;5.00;4.00
69205;PMS7003;56319;48.920;2.332;2023-05-29T09:14:45;5.25;5.00;4.75
69205;PMS7003;56319;48.920;2.332;2023-05-29T09:17:12;5.00;5.00;4.00
69205;PMS7003;56319;48.920;2.332;2023-05-29T09:19:38;6.75;5.50;4.00
69205;PMS7003;56319;48.920;2.332;2023-05-29T09:22:06;7.00;6.00;4.50
69205;PMS7003;56319;48.920;2.332;2023-05-29T09:24:35;7.00;5.75;4.25
69205;PMS7003;56319;48.920;2.332;2023-05-29T09:27:03;6.00;5.00;4.50
69205;PMS7003;56319;48.920;2.332;2023-05-29T09:29:31;5.00;5.00;4.00
69205;PMS7003;56319;48.920;2.332;2023-05-29T09:31:57;6.00;6.00;4.25
69205;PMS7003;56319;48.920;2.332;2023-05-29T09:34:24;5.75;5.75;5.00
69205;PMS7003;56319;48.920;2.332;2023-05-29T09:36:51;4.75;4.75;4.00
69205;PMS7003;56319;48.920;2.332;2023-05-29T09:39:18;3.50;3.50;3.00
69205;PMS7003;56319;48.920;2.332;2023-05-29T09:41:44;6.50;6.50;4.50
69205;PMS7003;56319;48.920;2.332;2023-05-29T09:44:12;6.00;6.00;5.25
69205;PMS7003;56319;48.920;2.332;2023-05-29T09:46:39;5.75;4.75;3.75
69205;PMS7003;56319;48.920;2.332;2023-05-29T09:49:10;5.00;5.00;4.00
69205;PMS7003;56319;48.920;2.332;2023-05-29T09:51:37;6.50;6.00;5.00
69205;PMS7003;56319;48.920;2.332;2023-05-29T09:56:53;5.50;5.00;4.00
69205;PMS7003;56319;48.920;2.332;2023-05-29T09:59:18;6.00;6.00;5.00
69205;PMS7003;56319;48.920;2.332;2023-05-29T10:01:46;6.00;5.75;5.00
69205;PMS7003;56319;48.920;2.332;2023-05-29T10:04:11;5.50;5.50;4.50
69205;PMS7003;56319;48.920;2.332;2023-05-29T10:06:45;6.25;6.25;5.00
69205;PMS7003;56319;48.920;2.332;2023-05-29T10:09:14;8.00;8.00;6.00
69205;PMS7003;56319;48.920;2.332;2023-05-29T10:11:43;6.00;5.00;4.25
69205;PMS7003;56319;48.920;2.332;2023-05-29T10:14:14;7.00;6.00;5.00
69205;PMS7003;56319;48.920;2.332;2023-05-29T10:16:44;5.75;5.00;4.00
69205;PMS7003;56319;48.920;2.332;2023-05-29T10:19:13;9.50;6.75;5.25
69205;PMS7003;56319;48.920;2.332;2023-05-29T10:21:44;6.25;6.00;5.25
69205;PMS7003;56319;48.920;2.332;2023-05-29T10:24:10;7.25;5.00;4.00
69205;PMS7003;56319;48.920;2.332;2023-05-29T10:26:37;8.75;6.75;5.50
69205;PMS7003;56319;48.920;2.332;2023-05-29T10:32:16;9.75;7.25;6.00
69205;PMS7003;56319;48.920;2.332;2023-05-29T10:34:56;8.50;6.00;4.50
69205;PMS7003;56319;48.920;2.332;2023-05-29T10:37:34;6.00;6.00;5.00
69205;PMS7003;56319;48.920;2.332;2023-05-29T10:40:05;7.00;6.25;5.25
69205;PMS7003;56319;48.920;2.332;2023-05-29T10:48:35;6.00;6.00;5.00
69205;PMS7003;56319;48.920;2.332;2023-05-29T10:51:01;7.00;7.00;6.00
69205;PMS7003;56319;48.920;2.332;2023-05-29T10:53:30;7.75;6.25;5.00
69205;PMS7003;56319;48.920;2.332;2023-05-29T10:55:58;9.00;8.00;6.00
69205;PMS7003;56319;48.920;2.332;2023-05-29T10:58:25;8.00;7.00;6.00
69205;PMS7003;56319;48.920;2.332;2023-05-29T11:00:51;8.00;6.00;5.00
69205;PMS7003;56319;48.920;2.332;2023-05-29T11:03:20;8.25;8.00;6.00
69205;PMS7003;56319;48.920;2.332;2023-05-29T11:17:44;5.75;5.75;5.00
69205;PMS7003;56319;48.920;2.332;2023-05-29T11:20:16;11.50;9.00;6.00
69205;PMS7003;56319;48.920;2.332;2023-05-29T11:23:06;7.25;6.00;4.75
69205;PMS7003;56319;48.920;2.332;2023-05-29T11:25:34;8.00;8.00;6.00
69205;PMS7003;56319;48.920;2.332;2023-05-29T11:28:02;8.00;7.25;6.00
69205;PMS7003;56319;48.920;2.332;2023-05-29T11:30:40;8.00;7.75;6.50
69205;PMS7003;56319;48.920;2.332;2023-05-29T11:33:06;8.25;7.50;6.50
69205;PMS7003;56319;48.920;2.332;2023-05-29T11:35:33;8.00;6.00;5.00
69205;PMS7003;56319;48.920;2.332;2023-05-29T11:38:02;10.00;7.00;5.50
69205;PMS7003;56319;48.920;2.332;2023-05-29T11:40:28;9.00;8.50;6.25
69205;PMS7003;56319;48.920;2.332;2023-05-29T11:42:54;7.75;7.75;6.00
69205;PMS7003;56319;48.920;2.332;2023-05-29T11:45:21;9.00;9.00;7.00
69205;PMS7003;56319;48.920;2.332;2023-05-29T11:47:51;8.50;8.00;6.75
69205;PMS7003;56319;48.920;2.332;2023-05-29T11:50:19;9.00;9.00;7.00
69205;PMS7003;56319;48.920;2.332;2023-05-29T11:52:46;8.75;8.75;7.25
69205;PMS7003;56319;48.920;2.332;2023-05-29T11:55:12;10.00;8.75;7.50
69205;PMS7003;56319;48.920;2.332;2023-05-29T11:57:37;8.50;8.50;7.00
69205;PMS7003;56319;48.920;2.332;2023-05-29T12:00:03;8.25;7.00;6.00
69205;PMS7003;56319;48.920;2.332;2023-05-29T12:02:36;7.00;7.00;6.50
69205;PMS7003;56319;48.920;2.332;2023-05-29T12:05:03;11.00;8.50;7.00
69205;PMS7003;56319;48.920;2.332;2023-05-29T12:07:29;10.75;8.50;6.50
69205;PMS7003;56319;48.920;2.332;2023-05-29T12:09:55;9.50;8.25;7.00
69205;PMS7003;56319;48.920;2.332;2023-05-29T12:12:23;12.50;8.75;7.00
69205;PMS7003;56319;48.920;2.332;2023-05-29T12:14:50;9.75;7.75;5.50
69205;PMS7003;56319;48.920;2.332;2023-05-29T12:17:16;8.75;7.00;5.50
69205;PMS7003;56319;48.920;2.332;2023-05-29T12:19:41;10.00;8.25;6.00
69205;PMS7003;56319;48.920;2.332;2023-05-29T12:22:07;6.25;6.25;5.75
69205;PMS7003;56319;48.920;2.332;2023-05-29T12:24:34;8.00;7.25;6.00
69205;PMS7003;56319;48.920;2.332;2023-05-29T12:27:03;10.75;9.00;7.00
69205;PMS7003;56319;48.920;2.332;2023-05-29T12:29:30;7.50;7.50;6.00
69205;PMS7003;56319;48.920;2.332;2023-05-29T12:31:57;9.00;7.25;6.25
69205;PMS7003;56319;48.920;2.332;2023-05-29T12:34:24;9.00;7.25;6.00
69205;PMS7003;56319;48.920;2.332;2023-05-29T12:36:49;8.50;7.75;7.00
69205;PMS7003;56319;48.920;2.332;2023-05-29T12:39:15;8.00;8.00;7.25
69205;PMS7003;56319;48.920;2.332;2023-05-29T12:41:40;10.00;7.25;6.00
69205;PMS7003;56319;48.920;2.332;2023-05-29T12:44:06;6.25;6.25;5.25
69205;PMS7003;56319;48.920;2.332;2023-05-29T12:46:37;10.00;7.75;6.00
69205;PMS7003;56319;48.920;2.332;2023-05-29T12:51:51;5.00;5.00;3.75
69205;PMS7003;56319;48.920;2.332;2023-05-29T12:54:17;8.50;7.00;5.00
69205;PMS7003;56319;48.920;2.332;2023-05-29T12:56:43;7.50;7.00;6.00
69205;PMS7003;56319;48.920;2.332;2023-05-29T12:59:11;9.75;7.00;6.00
69205;PMS7003;56319;48.920;2.332;2023-05-29T13:01:36;10.25;8.00;6.50
69205;PMS7003;56319;48.920;2.332;2023-05-29T13:04:04;9.00;9.00;6.75
69205;PMS7003;56319;48.920;2.332;2023-05-29T13:06:34;9.25;6.00;6.00
69205;PMS7003;56319;48.920;2.332;2023-05-29T13:09:00;7.00;7.00;5.50
69205;PMS7003;56319;48.920;2.332;2023-05-29T13:11:26;8.00;7.00;6.00
69205;PMS7003;56319;48.920;2.332;2023-05-29T13:13:51;7.25;7.25;6.00
69205;PMS7003;56319;48.920;2.332;2023-05-29T13:16:17;7.00;6.00;4.50
69205;PMS7003;56319;48.920;2.332;2023-05-29T13:18:43;6.00;5.25;5.00
69205;PMS7003;56319;48.920;2.332;2023-05-29T13:21:09;7.50;7.00;6.00
69205;PMS7003;56319;48.920;2.332;2023-05-29T13:23:35;8.75;7.25;5.25
69205;PMS7003;56319;48.920;2.332;2023-05-29T13:26:01;7.25;6.75;5.75
69205;PMS7003;56319;48.920;2.332;2023-05-29T13:28:26;8.75;6.25;6.00
69205;PMS7003;56319;48.920;2.332;2023-05-29T13:30:52;6.75;6.75;5.00
69205;PMS7003;56319;48.920;2.332;2023-05-29T13:33:20;5.75;5.75;5.00
69205;PMS7003;56319;48.920;2.332;2023-05-29T13:35:45;6.00;6.00;5.00
69205;PMS7003;56319;48.920;2.332;2023-05-29T13:38:11;6.00;6.00;5.00
69205;PMS7003;56319;48.920;2.332;2023-05-29T13:40:36;7.50;6.00;5.00
69205;PMS7003;56319;48.920;2.332;2023-05-29T13:43:02;9.25;5.25;4.75
69205;PMS7003;56319;48.920;2.332;2023-05-29T13:45:28;6.25;6.00;4.75
69205;PMS7003;56319;48.920;2.332;2023-05-29T13:47:54;7.00;6.00;6.00
69205;PMS7003;56319;48.920;2.332;2023-05-29T13:50:20;8.00;6.75;6.00
69205;PMS7003;56319;48.920;2.332;2023-05-29T13:52:48;7.50;6.00;4.75
69205;PMS7003;56319;48.920;2.332;2023-05-29T13:55:14;6.50;6.00;5.00
69205;PMS7003;56319;48.920;2.332;2023-05-29T13:57:39;7.25;6.00;4.75
69205;PMS7003;56319;48.920;2.332;2023-05-29T14:00:06;5.25;5.25;4.75
69205;PMS7003;56319;48.920;2.332;2023-05-29T14:02:32;6.25;6.00;5.00
69205;PMS7003;56319;48.920;2.332;2023-05-29T14:04:58;8.50;6.25;5.75
69205;PMS7003;56319;48.920;2.332;2023-05-29T14:07:23;7.50;7.00;5.00
69205;PMS7003;56319;48.920;2.332;2023-05-29T14:09:49;4.75;4.75;4.75
69205;PMS7003;56319;48.920;2.332;2023-05-29T14:12:15;5.75;5.75;4.50
69205;PMS7003;56319;48.920;2.332;2023-05-29T14:14:40;7.25;6.00;5.00
69205;PMS7003;56319;48.920;2.332;2023-05-29T14:17:06;5.75;5.00;4.00
69205;PMS7003;56319;48.920;2.332;2023-05-29T14:19:32;7.00;5.50;5.25
69205;PMS7003;56319;48.920;2.332;2023-05-29T14:21:57;6.00;6.00;4.75
69205;PMS7003;56319;48.920;2.332;2023-05-29T14:24:24;5.25;5.00;4.25
69205;PMS7003;56319;48.920;2.332;2023-05-29T14:26:51;4.75;4.25;3.75
69205;PMS7003;56319;48.920;2.332;2023-05-29T14:29:16;5.00;5.00;4.00
69205;PMS7003;56319;48.920;2.332;2023-05-29T14:31:42;10.25;6.25;4.00
69205;PMS7003;56319;48.920;2.332;2023-05-29T14:34:09;8.00;5.25;4.75
69205;PMS7003;56319;48.920;2.332;2023-05-29T14:36:35;7.25;5.50;4.00
69205;PMS7003;56319;48.920;2.332;2023-05-29T14:39:01;7.00;5.00;4.00
69205;PMS7003;56319;48.920;2.332;2023-05-29T14:41:27;5.00;5.00;4.00
69205;PMS7003;56319;48.920;2.332;2023-05-29T14:43:52;5.25;5.25;4.50
69205;PMS7003;56319;48.920;2.332;2023-05-29T14:46:18;6.00;5.50;5.00
69205;PMS7003;56319;48.920;2.332;2023-05-29T14:48:44;5.25;5.25;4.25
69205;PMS7003;56319;48.920;2.332;2023-05-29T14:51:12;6.75;5.25;4.00
69205;PMS7003;56319;48.920;2.332;2023-05-29T14:53:37;4.25;3.75;3.00